aviador You're here:

OITP Decoded Metar

PARSABAD in IRAN
Report Time2018-05-27 01:00:00
UTC Time2018-05-27 01:21:41
Flight Rules ifr IFR
Wind130° at 17 kt
W.Decomp.*RWY 11: 16.3 kt HW 5.0 kt RCW
W.Rank130° ranks 6
Current wind is above 130° avg. (8.8)
Visibility4000 m
Phenomena:Heavy Shower Rain
Clouds:Scattered 040 Hf
Expected CloudBase > 800 ft AGL from Temp-Dew spread
CeilingNone
Temp19°C (ISA +4)
Dew Point17°C (88% RH)
AAT15.2°C
QNH1014 hPa
Density Alt1,004 ft
Elevation251 ft
Report Wrong Elevation
Raw Report
METAR OITP 270100Z 13017KT 4000 +SHRA SCT040 19/17 Q1014=

Extra information for OITP:More info

Metar Taf Metar & Taf Last 4 Metars F.Rules Stats Wind Profile Meteogram Temp Stats Airport Information Weather charts Add Link Nearby VenuesMetar ALERT Operation Metar Decoded Social comments